createdAt,value
2018-07-20T00:02:39.094Z,14.90
2018-07-20T00:05:06.834Z,14.80
2018-07-20T00:10:02.021Z,14.80
2018-07-20T00:12:29.620Z,14.80
2018-07-20T00:14:57.250Z,14.80
2018-07-20T00:17:24.839Z,14.80
2018-07-20T00:19:52.459Z,14.70
2018-07-20T00:22:20.045Z,14.70
2018-07-20T00:24:47.676Z,14.60
2018-07-20T00:27:15.235Z,14.60
2018-07-20T00:29:42.835Z,14.50
2018-07-20T00:32:11.415Z,14.50
2018-07-20T00:34:39.070Z,14.50
2018-07-20T00:37:06.738Z,14.50
2018-07-20T00:39:34.345Z,14.50
2018-07-20T00:42:01.978Z,14.50
2018-07-20T00:44:29.595Z,14.50
2018-07-20T00:46:57.235Z,14.40
2018-07-20T00:54:19.909Z,14.20
2018-07-20T00:56:47.589Z,14.20
2018-07-20T00:59:15.215Z,14.20
2018-07-20T01:01:42.879Z,14.10
2018-07-20T01:04:10.480Z,14.10
2018-07-20T01:06:38.111Z,14.10
2018-07-20T01:09:07.516Z,14.10
2018-07-20T01:11:35.146Z,14.10
2018-07-20T01:14:02.736Z,14.10
2018-07-20T01:16:30.366Z,14.10
2018-07-20T01:21:25.461Z,13.90
2018-07-20T01:26:20.595Z,13.90
2018-07-20T01:28:48.147Z,13.90
2018-07-20T01:31:15.749Z,13.90
2018-07-20T01:36:10.856Z,13.90
2018-07-20T01:41:06.024Z,13.90
2018-07-20T01:43:33.655Z,13.70
2018-07-20T01:48:28.774Z,13.80
2018-07-20T01:53:23.845Z,14.00
2018-07-20T01:55:51.406Z,13.90
2018-07-20T01:58:19.051Z,13.90
2018-07-20T02:03:14.357Z,13.80
2018-07-20T02:05:41.992Z,13.80
2018-07-20T02:08:09.613Z,13.70
2018-07-20T02:10:37.163Z,13.70
2018-07-20T02:13:04.867Z,13.70
2018-07-20T02:15:32.463Z,13.60
2018-07-20T02:18:00.078Z,13.70
2018-07-20T02:20:27.658Z,13.70
2018-07-20T02:25:22.750Z,13.60
2018-07-20T02:27:50.371Z,13.50
2018-07-20T02:30:18.022Z,13.60
2018-07-20T02:35:13.132Z,13.50
2018-07-20T02:37:40.702Z,13.50
2018-07-20T02:40:08.359Z,13.40
2018-07-20T02:42:35.952Z,13.30
2018-07-20T02:45:03.747Z,13.30
2018-07-20T02:47:31.342Z,13.40
2018-07-20T02:49:58.983Z,13.40
2018-07-20T02:52:26.547Z,13.40
2018-07-20T02:54:54.173Z,13.50
2018-07-20T02:57:21.789Z,13.50
2018-07-20T02:59:49.400Z,13.50
2018-07-20T03:02:17.055Z,13.50
2018-07-20T03:04:44.671Z,13.50
2018-07-20T03:07:12.251Z,13.10
2018-07-20T03:09:39.827Z,13.50
2018-07-20T03:12:07.436Z,13.60
2018-07-20T03:14:35.013Z,13.60
2018-07-20T03:19:30.108Z,13.50
2018-07-20T03:21:57.722Z,13.50
2018-07-20T03:24:25.351Z,13.50
2018-07-20T03:26:52.945Z,13.30
2018-07-20T03:31:48.151Z,13.20
2018-07-20T03:34:15.746Z,13.20
2018-07-20T03:39:10.936Z,13.20
2018-07-20T03:41:38.886Z,13.20
2018-07-20T03:44:07.102Z,13.20
2018-07-20T03:46:34.715Z,13.20
2018-07-20T03:49:02.363Z,13.20
2018-07-20T03:51:29.946Z,13.20
2018-07-20T03:53:57.530Z,13.10
2018-07-20T03:56:25.151Z,13.10
2018-07-20T03:58:52.765Z,13.10
2018-07-20T04:01:20.372Z,13.10
2018-07-20T04:03:47.987Z,13.10
2018-07-20T04:06:15.678Z,13.20
2018-07-20T04:08:43.226Z,13.20
2018-07-20T04:11:10.856Z,13.20
2018-07-20T04:16:06.046Z,13.20
2018-07-20T04:18:33.646Z,13.30
2018-07-20T04:21:01.258Z,13.30
2018-07-20T04:23:28.832Z,13.40
2018-07-20T04:25:56.503Z,13.40
2018-07-20T04:28:24.097Z,13.50
2018-07-20T04:30:51.745Z,13.60
2018-07-20T04:33:19.342Z,13.70
2018-07-20T04:35:46.966Z,13.70
2018-07-20T04:38:14.595Z,13.80
2018-07-20T04:40:42.270Z,13.80
2018-07-20T04:45:37.386Z,13.90
2018-07-20T04:48:05.106Z,14.00
2018-07-20T04:50:32.730Z,14.10
2018-07-20T04:53:00.356Z,14.10
2018-07-20T04:55:28.001Z,14.00
2018-07-20T04:57:55.633Z,14.20
2018-07-20T05:00:23.290Z,14.20
2018-07-20T05:02:50.925Z,14.20
2018-07-20T05:05:18.782Z,14.10
2018-07-20T05:07:46.437Z,14.10
2018-07-20T05:10:14.057Z,14.20
2018-07-20T05:12:41.762Z,14.30
2018-07-20T05:15:09.410Z,14.30
2018-07-20T05:17:37.042Z,14.30
2018-07-20T05:20:04.751Z,14.40
2018-07-20T05:24:59.922Z,14.50
2018-07-20T05:27:27.553Z,14.60
2018-07-20T05:37:17.717Z,15.10
2018-07-20T05:42:12.926Z,15.40
2018-07-20T05:44:40.572Z,15.50
2018-07-20T05:47:08.157Z,15.80
2018-07-20T05:49:35.838Z,16.00
2018-07-20T05:54:31.031Z,16.30
2018-07-20T05:56:58.744Z,16.30
2018-07-20T05:59:26.387Z,16.50
2018-07-20T06:04:21.552Z,16.60
2018-07-20T06:06:49.207Z,16.60
2018-07-20T06:09:16.817Z,16.60
2018-07-20T06:11:44.460Z,16.60
2018-07-20T06:14:12.066Z,16.60
2018-07-20T06:16:39.697Z,16.60
2018-07-20T06:19:07.333Z,16.70
2018-07-20T06:24:02.514Z,16.70
2018-07-20T06:26:30.201Z,16.70
2018-07-20T06:28:57.832Z,16.70
2018-07-20T06:31:25.533Z,16.70
2018-07-20T06:33:53.178Z,16.70
2018-07-20T06:36:24.327Z,16.70
2018-07-20T06:38:52.261Z,16.70
2018-07-20T06:41:19.931Z,16.70
2018-07-20T06:43:47.643Z,16.80
2018-07-20T06:46:15.323Z,16.80
2018-07-20T06:48:42.962Z,16.90
2018-07-20T06:51:10.603Z,17.20
2018-07-20T06:53:38.267Z,17.30
2018-07-20T06:56:05.977Z,17.60
2018-07-20T06:58:33.562Z,17.80
2018-07-20T07:01:01.220Z,18.00
2018-07-20T07:03:28.832Z,18.30
2018-07-20T07:05:56.469Z,18.50
2018-07-20T07:08:24.271Z,18.70
2018-07-20T07:10:51.949Z,19.00
2018-07-20T07:13:19.602Z,19.20
2018-07-20T07:15:47.281Z,19.40
2018-07-20T07:18:14.907Z,19.60
2018-07-20T07:20:42.554Z,19.60
2018-07-20T07:23:10.166Z,20.00
2018-07-20T07:25:37.808Z,20.30
2018-07-20T07:28:05.458Z,20.40
2018-07-20T07:33:00.598Z,20.80
2018-07-20T07:35:28.996Z,20.80
2018-07-20T07:37:56.658Z,20.90
2018-07-20T07:40:24.325Z,21.30
2018-07-20T07:42:51.986Z,21.40
2018-07-20T07:45:19.643Z,21.60
2018-07-20T07:47:47.251Z,21.70
2018-07-20T07:50:14.931Z,21.70
2018-07-20T07:52:42.676Z,22.00
2018-07-20T07:55:10.387Z,22.20
2018-07-20T07:57:38.028Z,22.30
2018-07-20T08:00:05.704Z,22.30
2018-07-20T08:02:33.374Z,22.40
2018-07-20T08:07:28.486Z,22.50
2018-07-20T08:09:56.153Z,22.50
2018-07-20T08:12:23.714Z,22.70
2018-07-20T08:14:51.338Z,22.90
2018-07-20T08:19:46.478Z,23.30
2018-07-20T08:22:14.132Z,23.30
2018-07-20T08:27:09.243Z,23.70
2018-07-20T08:29:36.883Z,24.00
2018-07-20T08:34:32.059Z,24.40
2018-07-20T08:39:27.208Z,24.90
2018-07-20T08:41:54.856Z,24.90
2018-07-20T08:44:22.483Z,25.10
2018-07-20T08:46:50.169Z,25.10
2018-07-20T08:49:17.798Z,25.10
2018-07-20T08:51:45.466Z,25.10
2018-07-20T08:54:13.072Z,25.00
2018-07-20T08:56:40.753Z,25.00
2018-07-20T08:59:08.437Z,25.00
2018-07-20T09:01:36.045Z,25.10
2018-07-20T09:04:03.704Z,25.10
2018-07-20T09:06:31.400Z,25.10
2018-07-20T09:08:59.008Z,25.10
2018-07-20T09:13:54.419Z,25.20
2018-07-20T09:16:21.874Z,25.50
2018-07-20T09:18:49.589Z,25.50
2018-07-20T09:21:17.194Z,25.70
2018-07-20T09:23:44.914Z,26.30
2018-07-20T09:28:40.018Z,26.20
2018-07-20T09:31:07.660Z,26.20
2018-07-20T09:33:35.318Z,26.40
2018-07-20T09:36:03.043Z,26.50
2018-07-20T09:40:58.847Z,26.90
2018-07-20T09:43:27.078Z,27.00
2018-07-20T09:48:22.232Z,27.90
2018-07-20T09:50:49.910Z,27.90
2018-07-20T09:53:17.542Z,28.00
2018-07-20T09:55:45.165Z,27.90
2018-07-20T09:58:12.772Z,28.00
2018-07-20T10:05:41.083Z,27.10
2018-07-20T10:08:08.710Z,27.20
2018-07-20T10:10:36.338Z,27.20
2018-07-20T10:17:59.150Z,26.90
2018-07-20T10:20:26.814Z,26.70
2018-07-20T10:22:54.450Z,26.50
2018-07-20T10:27:49.625Z,26.10
2018-07-20T10:32:44.778Z,26.50
2018-07-20T10:35:12.443Z,27.10
2018-07-20T10:37:40.128Z,27.60
2018-07-20T10:40:07.795Z,28.40
2018-07-20T10:42:35.449Z,28.90
2018-07-20T10:45:03.154Z,29.40
2018-07-20T10:47:30.814Z,29.30
2018-07-20T10:49:58.432Z,29.70
2018-07-20T10:52:26.109Z,29.70
2018-07-20T10:54:53.774Z,29.90
2018-07-20T10:57:21.409Z,29.90
2018-07-20T10:59:49.375Z,29.80
2018-07-20T11:07:12.602Z,30.00
2018-07-20T11:12:08.092Z,29.90
2018-07-20T11:14:35.770Z,29.30
2018-07-20T11:17:03.468Z,28.60
2018-07-20T11:21:58.629Z,27.50
2018-07-20T11:24:26.305Z,27.10
2018-07-20T11:26:53.898Z,26.90
2018-07-20T11:29:21.682Z,26.60
2018-07-20T11:31:49.308Z,26.40
2018-07-20T11:34:17.025Z,26.10
2018-07-20T11:36:44.744Z,26.00
2018-07-20T11:39:12.378Z,26.00
2018-07-20T11:44:07.740Z,26.40
2018-07-20T11:46:35.427Z,26.70
2018-07-20T11:51:30.554Z,27.40
2018-07-20T11:53:58.223Z,28.00
2018-07-20T11:56:25.920Z,28.40
2018-07-20T11:58:53.658Z,28.90
2018-07-20T12:01:21.401Z,29.10
2018-07-20T12:06:16.753Z,28.70
2018-07-20T12:08:44.403Z,28.70
2018-07-20T12:13:39.594Z,28.90
2018-07-20T12:16:07.324Z,28.90
2018-07-20T12:18:34.917Z,28.40
2018-07-20T12:21:02.592Z,28.20
2018-07-20T12:23:30.247Z,28.10
2018-07-20T12:25:57.857Z,27.80
2018-07-20T12:28:25.473Z,28.30
2018-07-20T12:30:53.093Z,29.10
2018-07-20T12:35:48.253Z,30.30
2018-07-20T12:38:15.878Z,31.00
2018-07-20T12:43:11.002Z,32.10
2018-07-20T12:45:38.708Z,32.40
2018-07-20T12:48:06.685Z,32.60
2018-07-20T12:53:01.915Z,31.90
2018-07-20T12:57:57.124Z,29.90
2018-07-20T13:00:24.802Z,29.00
2018-07-20T13:02:52.401Z,28.40
2018-07-20T13:05:20.038Z,27.90
2018-07-20T13:07:47.774Z,27.50
2018-07-20T13:10:15.453Z,27.60
2018-07-20T13:12:43.164Z,28.40
2018-07-20T13:17:38.390Z,29.70
2018-07-20T13:27:28.706Z,32.60
2018-07-20T13:32:23.841Z,32.80
2018-07-20T13:34:51.517Z,32.30
2018-07-20T13:37:19.136Z,32.20
2018-07-20T13:39:46.782Z,32.50
2018-07-20T13:42:14.419Z,32.80
2018-07-20T13:44:42.105Z,33.40
2018-07-20T13:47:09.810Z,33.40
2018-07-20T13:49:37.488Z,34.00
2018-07-20T13:52:05.217Z,34.40
2018-07-20T13:54:32.936Z,34.80
2018-07-20T13:57:00.644Z,35.20
2018-07-20T13:59:28.310Z,35.40
2018-07-20T14:01:56.003Z,35.30
2018-07-20T14:09:18.724Z,35.50
2018-07-20T14:11:46.400Z,35.30
2018-07-20T14:14:14.068Z,35.60
2018-07-20T14:19:09.318Z,35.40
2018-07-20T14:21:37.056Z,34.40
2018-07-20T14:24:04.714Z,32.80
2018-07-20T14:26:32.360Z,31.40
2018-07-20T14:28:59.961Z,30.30
2018-07-20T14:31:27.703Z,29.10
2018-07-20T14:33:55.284Z,28.40
2018-07-20T14:36:22.941Z,27.90
2018-07-20T14:48:40.877Z,26.10
2018-07-20T14:53:36.065Z,25.70
2018-07-20T14:56:03.734Z,25.20
2018-07-20T15:00:58.870Z,24.40
2018-07-20T15:03:26.664Z,24.40
2018-07-20T15:05:54.271Z,24.40
2018-07-20T15:08:21.904Z,24.50
2018-07-20T15:10:49.570Z,24.20
2018-07-20T15:13:17.484Z,23.60
2018-07-20T15:15:45.164Z,23.10
2018-07-20T15:18:12.786Z,22.70
2018-07-20T15:20:40.416Z,22.30
2018-07-20T15:23:08.354Z,22.10
2018-07-20T15:25:36.020Z,21.90
2018-07-20T15:28:03.879Z,22.00
2018-07-20T15:30:31.530Z,22.10
2018-07-20T15:35:26.724Z,22.00
2018-07-20T15:37:54.324Z,21.90
2018-07-20T15:40:22.018Z,21.90
2018-07-20T15:42:49.618Z,21.80
2018-07-20T15:45:17.338Z,21.70
2018-07-20T15:50:12.514Z,21.70
2018-07-20T15:55:07.855Z,21.50
2018-07-20T15:57:35.898Z,21.50
2018-07-20T16:00:04.347Z,21.40
2018-07-20T16:02:31.907Z,21.20
2018-07-20T16:12:22.528Z,19.90
2018-07-20T16:14:50.208Z,19.60
2018-07-20T16:17:17.933Z,19.40
2018-07-20T16:19:45.546Z,19.30
2018-07-20T16:22:13.214Z,19.30
2018-07-20T16:24:40.854Z,19.20
2018-07-20T16:27:08.511Z,19.20
2018-07-20T16:32:03.689Z,19.20
2018-07-20T16:34:31.339Z,19.20
2018-07-20T16:36:58.976Z,19.20
2018-07-20T16:39:26.647Z,19.20
2018-07-20T16:44:21.815Z,18.80
2018-07-20T16:46:49.487Z,18.40
2018-07-20T16:51:44.611Z,18.20
2018-07-20T16:54:12.271Z,18.10
2018-07-20T16:56:40.002Z,17.90
2018-07-20T16:59:07.655Z,17.70
2018-07-20T17:01:35.361Z,17.50
2018-07-20T17:06:30.586Z,17.20
2018-07-20T17:13:53.431Z,17.20
2018-07-20T17:16:21.107Z,17.10
2018-07-20T17:18:48.738Z,17.20
2018-07-20T17:21:16.411Z,17.10
2018-07-20T17:23:44.090Z,17.20
2018-07-20T17:26:11.782Z,17.20
2018-07-20T17:28:39.446Z,17.10
2018-07-20T17:31:07.167Z,17.10
2018-07-20T17:36:02.337Z,17.00
2018-07-20T17:38:30.047Z,17.00
2018-07-20T17:40:57.700Z,17.00
2018-07-20T17:43:25.402Z,17.00
2018-07-20T17:53:15.891Z,17.00
2018-07-20T17:55:43.532Z,17.00
2018-07-20T17:58:11.282Z,17.00
2018-07-20T18:00:39.026Z,17.00
2018-07-20T18:08:02.295Z,16.90
2018-07-20T18:12:57.500Z,17.00
2018-07-20T18:17:53.682Z,17.00
2018-07-20T18:20:21.337Z,17.00
2018-07-20T18:22:49.057Z,17.00
2018-07-20T18:25:16.707Z,17.00
2018-07-20T18:27:44.411Z,16.90
2018-07-20T18:30:12.108Z,16.90
2018-07-20T18:32:39.751Z,16.90
2018-07-20T18:35:07.478Z,16.90
2018-07-20T18:37:35.211Z,16.90
2018-07-20T18:40:02.976Z,16.80
2018-07-20T18:42:30.657Z,16.90
2018-07-20T18:44:58.361Z,16.80
2018-07-20T18:47:26.017Z,16.80
2018-07-20T18:49:53.661Z,16.80
2018-07-20T18:57:16.495Z,16.70
2018-07-20T18:59:44.285Z,16.70
2018-07-20T19:04:39.540Z,16.70
2018-07-20T19:07:07.189Z,16.60
2018-07-20T19:09:34.868Z,16.60
2018-07-20T19:12:02.522Z,16.60
2018-07-20T19:14:30.356Z,16.50
2018-07-20T19:19:25.600Z,16.30
2018-07-20T19:21:53.403Z,16.30
2018-07-20T19:26:48.650Z,16.20
2018-07-20T19:29:16.333Z,16.20
2018-07-20T19:31:43.976Z,16.20
2018-07-20T19:34:12.790Z,16.20
2018-07-20T19:36:40.527Z,16.10
2018-07-20T19:39:24.660Z,16.10
2018-07-20T19:41:56.489Z,16.10
2018-07-20T19:47:03.466Z,16.00
2018-07-20T19:49:33.299Z,16.10
2018-07-20T19:54:39.781Z,16.20
2018-07-20T20:00:00.371Z,16.10
2018-07-20T20:02:43.540Z,16.10
2018-07-20T20:05:27.246Z,16.10
2018-07-20T20:17:45.765Z,16.00
2018-07-20T20:20:14.088Z,15.90
2018-07-20T20:22:42.730Z,15.90
2018-07-20T20:25:10.531Z,16.00
2018-07-20T20:27:54.402Z,15.90
2018-07-20T20:30:29.853Z,16.00
2018-07-20T20:32:58.211Z,16.00
2018-07-20T20:35:26.000Z,16.10
2018-07-20T20:37:54.446Z,16.20
2018-07-20T20:40:23.122Z,16.20
2018-07-20T20:45:18.835Z,16.20
2018-07-20T20:47:49.601Z,16.20
2018-07-20T20:50:21.307Z,16.30
2018-07-20T20:52:49.220Z,16.30
2018-07-20T20:55:17.830Z,16.30
2018-07-20T20:57:46.642Z,16.30
2018-07-20T21:00:16.736Z,16.30
2018-07-20T21:02:45.680Z,16.30
2018-07-20T21:05:17.640Z,16.30
2018-07-20T21:10:24.528Z,16.30
2018-07-20T21:13:15.066Z,16.30
2018-07-20T21:15:56.965Z,16.20
2018-07-20T21:18:37.416Z,16.20
2018-07-20T21:21:15.195Z,16.20
2018-07-20T21:23:53.400Z,16.20
2018-07-20T21:26:35.215Z,16.20
2018-07-20T21:29:27.369Z,16.10
2018-07-20T21:32:07.531Z,16.10
2018-07-20T21:37:49.097Z,16.10
2018-07-20T21:40:39.462Z,16.10
2018-07-20T21:43:18.431Z,16.10
2018-07-20T21:48:32.807Z,16.10
2018-07-20T21:51:20.951Z,16.00
2018-07-20T21:54:07.102Z,16.10
2018-07-20T21:56:45.410Z,16.00
2018-07-20T21:59:25.170Z,16.00
2018-07-20T22:02:02.535Z,16.00
2018-07-20T22:04:43.284Z,16.10
2018-07-20T22:07:23.332Z,16.10
2018-07-20T22:12:21.369Z,15.90
2018-07-20T22:14:49.021Z,15.90
2018-07-20T22:17:17.275Z,15.90
2018-07-20T22:24:40.522Z,16.00
2018-07-20T22:27:08.183Z,16.00
2018-07-20T22:29:35.977Z,15.90
2018-07-20T22:32:03.833Z,15.90
2018-07-20T22:34:31.567Z,15.90
2018-07-20T22:36:59.220Z,15.80
2018-07-20T22:39:26.846Z,15.80
2018-07-20T22:46:49.572Z,15.60
2018-07-20T22:49:17.152Z,15.60
2018-07-20T22:51:44.806Z,15.60
2018-07-20T22:54:12.455Z,15.60
2018-07-20T22:56:40.092Z,15.60
2018-07-20T22:59:07.750Z,15.50
2018-07-20T23:04:02.898Z,15.60
2018-07-20T23:06:30.511Z,15.60
2018-07-20T23:09:00.773Z,15.70
2018-07-20T23:11:28.362Z,15.70
2018-07-20T23:13:55.995Z,15.80
2018-07-20T23:21:19.110Z,15.70
2018-07-20T23:26:14.311Z,15.60
2018-07-20T23:28:41.894Z,15.50
2018-07-20T23:31:09.505Z,15.50
2018-07-20T23:33:37.122Z,15.50
2018-07-20T23:36:04.793Z,15.50
2018-07-20T23:38:32.420Z,15.50
2018-07-20T23:41:00.040Z,15.40
2018-07-20T23:43:27.646Z,15.50
2018-07-20T23:45:55.327Z,15.50
2018-07-20T23:48:22.923Z,15.50
2018-07-20T23:50:50.606Z,15.40
2018-07-20T23:53:18.686Z,15.30
2018-07-20T23:58:13.757Z,15.30
